logo dgac
Martes 21 de Septiembre del 2021
Buscar por aerodromo o helipuerto
Ingrese nombre de aeródromo, localidad o designador OACI:

Aeródromo: Chacalluta (PUB) (SCAR)

Ubicación: Arica, XV Región, Chile (18º 20' 55'' S, 70º 20' 19'' W) Ver ubicación en el mapa

Pistas

Orientación Dimensión Pendiente Superficie Resistencia APCH THR RWY PAPI
02/20 2170 x 45 0,60 ASPH 40 F/A/X/T
Horas de operación H24
Elevación 51 m / 166 ft
Otra Información Adm : D.G.A.C
Uso : PUB
Ubicado a 18,5 Km al NW de la Cuidad de Arica
Central TEL 56-582281100 TEL ARO 56-582281109
email : aro.arica@dgac.gob.cl

Otra información ver AIP-Chile Volumen I AD 2.2-1 SCAR

CCCM/FCCV Descargar
andera de Chile
Mapa de Chacalluta (PUB) (SCAR)

Último METAR

METAR SCAR 211000Z 14002KT CAVOK 14/10 Q1016

Último TAF

TAF SCAR 211019Z 2112/2212 20004KT CAVOK TX17/2118Z TN15/2210Z BECMG 2116/2118 22010KT BECMG 2122/2124 BKN030 BECMG 2201/2203 20004KT

Últimas fotos cámaras

Imagen aerodromo Chacalluta (PUB) (SCAR) Norte tomada el 21-09-2021 10:41:56 Imagen aerodromo Chacalluta (PUB) (SCAR) S-Oeste tomada el 21-09-2021 10:40:45

Último NOTAM

A4445/21 NOTAMN Q)SCFZ/QMRLC/IV/NBO/A/000/999/1821S07020W005 A)SCAR B)2109210411 C)2111301000 D)DLY BTN 0300-1000 E)RWY 02/20 CLSD DUE TO WIP